Time;durP1;ratioP1;P1;durP2;ratioP2;P2;SDS_P1;SDS_P2;PMS_P1;PMS_P2;Temp;Humidity;BMP_temperature;BMP_pressure;BME280_temperature;BME280_humidity;BME280_pressure;Samples;Min_cycle;Max_cycle;Signal;HPM_P1;HPM_P2
2022/05/22 00:01:55;;;;;;;10.97;3.80;;;11.20;1.00;;;;;;4974575;28;20427;-52
2022/05/22 00:04:20;;;;;;;20.33;4.37;;;11.20;1.00;;;;;;4974411;28;20435;-52
2022/05/22 00:06:46;;;;;;;15.53;4.60;;;11.20;1.00;;;;;;4974517;28;20531;-52
2022/05/22 00:09:11;;;;;;;12.30;5.13;;;11.20;1.00;;;;;;4973495;28;20581;-52
2022/05/22 00:11:37;;;;;;;12.17;4.53;;;11.20;1.00;;;;;;4974077;28;20200;-52
2022/05/22 00:14:03;;;;;;;16.67;4.47;;;11.20;1.00;;;;;;4974379;28;20197;-53
2022/05/22 00:16:37;;;;;;;14.27;5.00;;;11.10;1.00;;;;;;4977468;28;20213;-52
2022/05/22 00:19:17;;;;;;;10.33;4.60;;;11.10;1.00;;;;;;4974350;28;20176;-52
2022/05/22 00:21:43;;;;;;;18.70;4.53;;;11.10;35.10;;;;;;4973470;28;21196;-53
2022/05/22 00:24:10;;;;;;;13.50;4.50;;;11.10;22.40;;;;;;4972652;28;20677;-52
2022/05/22 00:26:36;;;;;;;12.00;4.27;;;11.10;33.20;;;;;;4974317;28;20441;-53
2022/05/22 00:29:01;;;;;;;17.07;4.77;;;11.10;35.90;;;;;;4973937;28;20428;-53
2022/05/22 00:31:27;;;;;;;14.97;4.50;;;11.10;43.90;;;;;;4974395;28;20288;-52
2022/05/22 00:33:53;;;;;;;18.17;4.60;;;11.10;54.10;;;;;;4973772;28;20196;-53
2022/05/22 00:36:18;;;;;;;13.53;5.27;;;11.10;72.70;;;;;;4974354;28;20303;-53
2022/05/22 00:38:44;;;;;;;13.40;4.60;;;11.00;97.80;;;;;;4972206;28;20189;-53
2022/05/22 00:41:11;;;;;;;12.67;5.23;;;11.00;99.90;;;;;;4970762;28;20590;-52
2022/05/22 00:43:40;;;;;;;11.57;5.40;;;10.90;99.90;;;;;;4973460;28;20199;-52
2022/05/22 00:46:08;;;;;;;14.97;5.00;;;10.90;99.90;;;;;;4973401;28;20524;-51
2022/05/22 00:48:35;;;;;;;17.37;5.20;;;10.90;99.90;;;;;;4972414;28;21088;-52
2022/05/22 00:51:12;;;;;;;15.97;5.67;;;11.00;99.90;;;;;;4973229;28;20431;-52
2022/05/22 00:53:42;;;;;;;11.77;5.10;;;10.90;99.90;;;;;;4973328;28;20464;-52
2022/05/22 00:56:11;;;;;;;23.47;5.87;;;10.90;99.90;;;;;;4973359;28;20567;-52
2022/05/22 00:58:38;;;;;;;15.23;6.20;;;10.90;99.90;;;;;;4973838;28;20491;-52
2022/05/22 01:01:04;;;;;;;9.80;5.00;;;10.80;99.90;;;;;;4973053;28;20436;-53
2022/05/22 01:03:31;;;;;;;19.43;6.27;;;10.80;99.90;;;;;;4973874;28;20438;-52
2022/05/22 01:06:07;;;;;;;20.20;5.83;;;10.80;99.90;;;;;;4973148;28;20228;-52
2022/05/22 01:08:34;;;;;;;13.90;4.60;;;10.80;99.90;;;;;;4965797;28;20488;-52
2022/05/22 01:11:13;;;;;;;17.33;6.00;;;10.80;99.90;;;;;;4973050;28;20444;-52
2022/05/22 01:13:49;;;;;;;20.77;6.30;;;10.70;99.90;;;;;;4967790;28;21069;-52
2022/05/22 01:16:15;;;;;;;10.60;5.40;;;10.70;1.00;;;;;;4972488;28;20476;-53
2022/05/22 01:18:42;;;;;;;15.70;6.33;;;10.70;1.00;;;;;;4973568;28;20433;-52
2022/05/22 01:21:12;;;;;;;14.50;5.53;;;10.60;1.00;;;;;;4972560;28;20216;-52
2022/05/22 01:23:38;;;;;;;18.37;6.40;;;10.60;1.00;;;;;;4973018;28;20436;-52
2022/05/22 01:26:03;;;;;;;13.20;5.70;;;10.60;1.00;;;;;;4973345;28;20476;-52
2022/05/22 01:28:29;;;;;;;14.13;5.60;;;10.60;1.00;;;;;;4973117;28;20283;-52
2022/05/22 01:30:55;;;;;;;15.90;5.73;;;10.60;1.00;;;;;;4972956;28;20200;-52
2022/05/22 01:33:20;;;;;;;15.50;5.50;;;10.60;1.00;;;;;;4973504;28;20650;-52
2022/05/22 01:35:46;;;;;;;17.50;5.97;;;10.60;1.00;;;;;;4972683;28;20217;-52
2022/05/22 01:38:11;;;;;;;20.63;5.87;;;10.50;1.00;;;;;;4972853;28;20831;-52
2022/05/22 01:40:37;;;;;;;18.57;6.17;;;10.50;13.70;;;;;;4973262;28;20505;-52
2022/05/22 01:43:03;;;;;;;16.97;5.70;;;10.50;54.20;;;;;;4972639;28;20201;-52
2022/05/22 01:45:29;;;;;;;16.73;5.63;;;10.40;99.90;;;;;;4971461;28;20204;-52
2022/05/22 01:47:55;;;;;;;14.53;5.23;;;10.40;99.90;;;;;;4971476;28;20432;-53
2022/05/22 01:50:21;;;;;;;15.93;5.30;;;10.40;99.90;;;;;;4973027;28;20440;-59
2022/05/22 01:52:47;;;;;;;18.00;6.07;;;10.40;1.00;;;;;;4970562;28;20432;-53
2022/05/22 01:55:13;;;;;;;16.53;5.70;;;10.40;1.00;;;;;;4972285;28;20440;-52
2022/05/22 01:57:39;;;;;;;21.87;5.83;;;10.40;1.00;;;;;;4971342;28;20228;-52
2022/05/22 02:00:06;;;;;;;17.63;5.60;;;10.40;99.90;;;;;;4972136;28;20880;-53
2022/05/22 02:02:32;;;;;;;13.27;5.40;;;10.40;99.90;;;;;;4972647;28;20824;-52
2022/05/22 02:04:58;;;;;;;11.37;5.13;;;10.40;1.00;;;;;;4972501;28;20432;-52
2022/05/22 02:10:08;;;;;;;20.70;5.47;;;10.40;1.00;;;;;;4975610;28;20251;-52
2022/05/22 02:12:34;;;;;;;16.20;5.50;;;10.30;1.00;;;;;;4970876;28;20458;-52
2022/05/22 02:15:00;;;;;;;23.53;4.90;;;10.30;68.50;;;;;;4971116;28;20448;-52
2022/05/22 02:17:26;;;;;;;18.57;5.60;;;10.30;99.90;;;;;;4971706;28;20224;-53
2022/05/22 02:19:51;;;;;;;14.17;5.37;;;10.30;99.90;;;;;;4970603;28;20475;-53
2022/05/22 02:22:17;;;;;;;24.23;6.17;;;10.30;1.00;;;;;;4972082;28;20340;-52
2022/05/22 02:24:42;;;;;;;14.50;5.50;;;10.30;36.00;;;;;;4972192;28;20201;-52
2022/05/22 02:27:08;;;;;;;20.43;6.30;;;10.30;1.00;;;;;;4972367;28;20283;-52
2022/05/22 02:29:35;;;;;;;21.77;6.00;;;10.30;1.00;;;;;;4971766;28;20671;-52
2022/05/22 02:32:01;;;;;;;19.33;5.83;;;10.30;1.00;;;;;;4972173;28;20193;-52
2022/05/22 02:34:27;;;;;;;23.10;5.90;;;10.20;1.00;;;;;;4970551;28;20452;-53
2022/05/22 02:36:52;;;;;;;18.43;5.40;;;10.30;1.00;;;;;;4971642;28;20817;-52
2022/05/22 02:39:18;;;;;;;18.67;6.37;;;10.30;1.00;;;;;;4971730;28;20193;-52
2022/05/22 02:41:44;;;;;;;17.23;5.63;;;10.20;99.90;;;;;;4972117;28;20989;-52
2022/05/22 02:44:10;;;;;;;14.53;5.40;;;10.30;99.90;;;;;;4972164;28;20244;-52
2022/05/22 02:46:36;;;;;;;18.10;6.10;;;10.30;1.00;;;;;;4971535;28;20440;-53
2022/05/22 02:49:02;;;;;;;10.80;4.93;;;10.30;1.00;;;;;;4971426;28;20197;-52
2022/05/22 02:51:27;;;;;;;17.03;5.63;;;10.20;99.90;;;;;;4972135;28;20808;-52
2022/05/22 02:53:54;;;;;;;12.30;4.93;;;10.20;1.00;;;;;;4971656;28;20268;-52
2022/05/22 02:56:22;;;;;;;14.27;5.47;;;10.20;1.00;;;;;;4971289;28;20583;-53
2022/05/22 02:58:48;;;;;;;14.73;5.77;;;10.10;1.00;;;;;;4971405;28;20478;-53
2022/05/22 03:01:13;;;;;;;19.20;5.97;;;10.10;47.80;;;;;;4971385;28;20444;-53
2022/05/22 03:03:39;;;;;;;18.80;6.07;;;10.10;99.90;;;;;;4971795;28;20204;-53
2022/05/22 03:08:48;;;;;;;16.67;6.53;;;10.00;89.50;;;;;;4970385;28;20645;-53
2022/05/22 03:11:14;;;;;;;19.63;5.83;;;10.00;1.00;;;;;;4971477;28;20444;-53
2022/05/22 03:13:39;;;;;;;18.20;5.93;;;10.00;1.00;;;;;;4978769;28;20216;-53
2022/05/22 03:16:05;;;;;;;13.03;5.50;;;10.00;1.00;;;;;;4975426;28;20299;-53
2022/05/22 03:18:30;;;;;;;14.70;5.00;;;10.00;99.90;;;;;;4976119;28;20189;-53
2022/05/22 03:20:57;;;;;;;14.30;5.73;;;10.00;99.90;;;;;;4975521;28;20197;-53
2022/05/22 03:23:22;;;;;;;12.23;5.43;;;10.00;1.00;;;;;;4975723;28;20308;-53
2022/05/22 03:25:48;;;;;;;21.57;5.50;;;10.10;1.00;;;;;;4975223;28;21005;-53
2022/05/22 03:28:15;;;;;;;16.53;5.30;;;10.10;1.00;;;;;;4975090;28;20824;-53
2022/05/22 03:30:41;;;;;;;16.10;5.43;;;10.10;1.00;;;;;;4974771;28;20188;-53
2022/05/22 03:33:07;;;;;;;17.00;5.47;;;10.10;18.40;;;;;;4975582;28;20443;-53
2022/05/22 03:35:32;;;;;;;18.60;5.57;;;10.10;65.60;;;;;;4974453;28;20189;-53
2022/05/22 03:37:58;;;;;;;17.30;5.20;;;10.20;99.30;;;;;;4975174;28;20199;-53
2022/05/22 03:40:24;;;;;;;14.87;4.87;;;10.30;99.90;;;;;;4975260;28;20196;-53
2022/05/22 03:42:50;;;;;;;13.90;5.20;;;10.30;93.80;;;;;;4974563;28;20189;-53
2022/05/22 03:45:15;;;;;;;11.67;5.17;;;10.30;80.40;;;;;;4974938;28;20205;-53
2022/05/22 03:47:41;;;;;;;15.40;5.80;;;10.30;95.50;;;;;;4973502;28;20200;-53
2022/05/22 03:50:08;;;;;;;14.90;5.20;;;10.30;99.90;;;;;;4974878;28;20247;-53
2022/05/22 03:52:35;;;;;;;18.00;5.33;;;10.40;99.90;;;;;;4978871;28;20197;-53
2022/05/22 03:55:02;;;;;;;15.33;5.67;;;10.40;99.90;;;;;;4975132;28;20447;-53
2022/05/22 03:57:27;;;;;;;15.43;5.13;;;10.50;99.90;;;;;;4975007;28;20559;-53
2022/05/22 03:59:53;;;;;;;15.10;5.27;;;10.50;99.90;;;;;;4974727;28;20531;-53
2022/05/22 04:02:18;;;;;;;13.93;4.90;;;10.60;99.90;;;;;;4974582;28;20201;-53
2022/05/22 04:04:44;;;;;;;17.23;4.93;;;10.60;25.50;;;;;;4972371;28;20192;-53
2022/05/22 04:07:10;;;;;;;13.80;5.23;;;10.70;1.00;;;;;;4970930;28;20239;-52
2022/05/22 04:09:35;;;;;;;13.03;5.17;;;10.70;1.00;;;;;;4974335;28;20193;-53
2022/05/22 04:12:06;;;;;;;20.83;5.47;;;10.70;1.00;;;;;;4974548;28;20184;-53
2022/05/22 04:14:31;;;;;;;16.37;5.53;;;10.70;1.00;;;;;;4974557;28;20200;-52
2022/05/22 04:16:57;;;;;;;15.67;5.30;;;10.70;93.60;;;;;;4974022;28;21028;-53
2022/05/22 04:19:22;;;;;;;12.80;5.03;;;10.80;1.00;;;;;;4977678;28;20196;-52
2022/05/22 04:21:48;;;;;;;17.73;4.77;;;10.80;99.90;;;;;;4974481;28;20232;-53
2022/05/22 04:27:03;;;;;;;14.43;5.27;;;11.00;99.90;;;;;;4967447;28;20230;-52
2022/05/22 04:29:29;;;;;;;11.63;4.20;;;11.10;99.90;;;;;;4973873;28;20436;-52
2022/05/22 04:31:55;;;;;;;19.33;4.63;;;11.20;99.90;;;;;;4972603;28;20444;-52
2022/05/22 04:34:20;;;;;;;12.80;5.17;;;11.20;99.90;;;;;;4973890;28;20459;-52
2022/05/22 04:36:46;;;;;;;18.77;5.50;;;11.30;7.90;;;;;;4974002;28;20256;-52
2022/05/22 04:39:11;;;;;;;11.07;4.73;;;11.50;10.50;;;;;;4973493;28;20271;-52
2022/05/22 04:41:37;;;;;;;23.83;4.97;;;11.60;1.00;;;;;;4973787;28;20220;-52
2022/05/22 04:44:02;;;;;;;15.23;5.60;;;11.70;99.90;;;;;;4973738;28;20205;-52
2022/05/22 04:46:28;;;;;;;9.43;4.90;;;11.70;1.00;;;;;;4974022;28;20272;-52
2022/05/22 04:48:53;;;;;;;15.40;5.07;;;11.80;1.00;;;;;;4973971;28;20215;-52
2022/05/22 04:51:19;;;;;;;10.40;4.23;;;11.90;99.90;;;;;;4973407;28;20197;-52
2022/05/22 04:53:44;;;;;;;13.00;4.90;;;12.00;99.90;;;;;;4970053;28;20200;-52
2022/05/22 04:56:10;;;;;;;18.03;5.27;;;12.00;99.90;;;;;;4973518;28;20217;-52
2022/05/22 04:58:36;;;;;;;17.90;4.90;;;12.00;99.90;;;;;;4974051;28;20189;-52
2022/05/22 05:01:10;;;;;;;12.30;4.93;;;12.00;26.20;;;;;;4973866;28;20235;-52
2022/05/22 05:03:36;;;;;;;10.50;5.07;;;12.10;38.00;;;;;;4967259;28;20287;-52
2022/05/22 05:06:02;;;;;;;14.83;4.87;;;12.20;1.00;;;;;;4973150;28;20527;-52
2022/05/22 05:08:29;;;;;;;19.97;4.67;;;12.30;1.00;;;;;;4968090;28;20273;-52
2022/05/22 05:10:56;;;;;;;17.27;5.33;;;12.30;99.90;;;;;;4971475;28;20436;-52
2022/05/22 05:13:23;;;;;;;14.57;5.27;;;12.40;24.90;;;;;;4973421;28;20436;-52
2022/05/22 05:16:03;;;;;;;22.67;5.40;;;12.40;1.00;;;;;;4973305;28;20472;-52
2022/05/22 05:18:29;;;;;;;14.00;4.50;;;12.40;1.00;;;;;;4973175;28;20452;-52
2022/05/22 05:20:57;;;;;;;14.00;4.80;;;12.50;1.00;;;;;;4971977;28;20428;-52
2022/05/22 05:23:23;;;;;;;11.30;4.30;;;12.60;1.00;;;;;;4976459;28;20459;-52
2022/05/22 05:25:48;;;;;;;14.23;4.20;;;12.60;1.00;;;;;;4972972;28;20474;-52
2022/05/22 05:28:14;;;;;;;9.97;4.30;;;12.60;1.00;;;;;;4973036;28;20197;-51
2022/05/22 05:30:40;;;;;;;10.87;4.57;;;12.60;1.00;;;;;;4973383;28;20195;-52
2022/05/22 05:33:05;;;;;;;13.80;5.00;;;12.50;1.00;;;;;;4973243;28;20195;-52
2022/05/22 05:35:31;;;;;;;14.80;5.53;;;12.50;1.00;;;;;;4972380;28;20205;-51
2022/05/22 05:37:57;;;;;;;13.63;5.00;;;12.50;1.00;;;;;;4972658;28;20216;-52
2022/05/22 05:40:22;;;;;;;23.83;4.90;;;12.50;1.00;;;;;;4972974;28;20193;-51
2022/05/22 05:42:48;;;;;;;19.50;4.70;;;12.60;1.00;;;;;;4972900;28;20674;-52
2022/05/22 05:45:15;;;;;;;20.77;5.27;;;12.60;1.00;;;;;;4972738;28;20268;-51
2022/05/22 05:47:44;;;;;;;10.03;4.50;;;12.70;1.00;;;;;;4972363;28;20204;-52
2022/05/22 05:50:10;;;;;;;13.20;4.97;;;12.90;1.00;;;;;;4973443;28;20440;-51
2022/05/22 05:52:36;;;;;;;16.43;4.90;;;13.10;1.00;;;;;;4974503;28;20440;-51
2022/05/22 05:55:02;;;;;;;10.43;3.40;;;13.30;1.00;;;;;;4972772;28;20193;-52
2022/05/22 05:57:28;;;;;;;13.77;5.10;;;13.40;1.00;;;;;;4972265;28;20216;-51
2022/05/22 05:59:55;;;;;;;17.33;5.10;;;13.50;1.00;;;;;;4973089;28;21071;-51
2022/05/22 06:02:21;;;;;;;9.07;4.40;;;13.50;1.00;;;;;;4972329;28;20192;-52
2022/05/22 06:04:47;;;;;;;10.30;4.67;;;13.70;1.00;;;;;;4972380;28;20444;-51
2022/05/22 06:07:12;;;;;;;10.53;4.10;;;13.70;1.00;;;;;;4973783;28;20546;-52
2022/05/22 06:09:38;;;;;;;12.70;4.17;;;13.80;1.00;;;;;;4972632;28;20201;-51
2022/05/22 06:12:05;;;;;;;15.70;5.20;;;13.80;99.90;;;;;;4972810;28;20558;-52
2022/05/22 06:14:30;;;;;;;12.80;4.23;;;13.80;99.90;;;;;;4972062;28;20455;-52
2022/05/22 06:16:56;;;;;;;8.23;3.90;;;13.70;99.90;;;;;;4972324;28;20551;-51
2022/05/22 06:22:07;;;;;;;15.47;4.30;;;13.70;99.90;;;;;;4970103;28;20502;-51
2022/05/22 06:24:36;;;;;;;13.80;4.47;;;13.80;99.90;;;;;;4971936;28;20842;-52
2022/05/22 06:27:02;;;;;;;12.23;3.83;;;13.80;99.90;;;;;;4972276;28;20446;-51
2022/05/22 06:29:28;;;;;;;12.47;4.60;;;13.90;99.90;;;;;;4975282;28;20503;-52
2022/05/22 06:31:54;;;;;;;12.13;5.40;;;14.00;99.90;;;;;;4971938;28;20930;-52
2022/05/22 06:34:22;;;;;;;13.67;4.40;;;14.00;99.90;;;;;;4975998;28;20675;-52
2022/05/22 06:36:49;;;;;;;11.93;4.50;;;13.90;99.90;;;;;;4971262;28;20663;-52
2022/05/22 06:41:59;;;;;;;17.50;5.80;;;14.00;99.90;;;;;;4968274;28;20423;-51
2022/05/22 06:44:24;;;;;;;14.07;5.03;;;14.10;99.90;;;;;;4972013;28;20443;-51
2022/05/22 06:46:50;;;;;;;13.10;4.87;;;14.20;99.90;;;;;;4971109;28;20588;-52
2022/05/22 06:49:15;;;;;;;13.07;5.17;;;14.20;99.90;;;;;;4971753;28;20279;-52
2022/05/22 06:51:41;;;;;;;12.70;5.33;;;14.10;99.90;;;;;;4971605;28;20189;-51
2022/05/22 06:54:06;;;;;;;14.13;5.03;;;14.20;99.90;;;;;;4971711;28;20205;-52
2022/05/22 06:56:32;;;;;;;16.93;5.90;;;14.10;99.90;;;;;;4971912;28;20891;-51
2022/05/22 06:58:58;;;;;;;16.00;5.10;;;14.10;99.90;;;;;;4971616;28;20565;-52
2022/05/22 07:01:24;;;;;;;11.07;5.20;;;14.20;99.90;;;;;;4971461;28;20184;-52
2022/05/22 07:03:50;;;;;;;19.70;5.47;;;14.30;99.90;;;;;;4970282;28;20659;-52
2022/05/22 07:06:16;;;;;;;9.37;5.17;;;14.50;99.90;;;;;;4971004;28;20440;-51
2022/05/22 07:08:41;;;;;;;11.33;5.00;;;14.70;99.90;;;;;;4970650;28;20804;-51
2022/05/22 07:13:52;;;;;;;13.20;4.50;;;14.90;99.90;;;;;;4972164;28;20200;-51
2022/05/22 07:16:17;;;;;;;10.80;4.57;;;15.10;99.90;;;;;;4971507;28;20821;-52
2022/05/22 07:18:43;;;;;;;11.07;4.10;;;15.90;99.90;;;;;;4971682;28;20432;-51
2022/05/22 07:21:08;;;;;;;10.20;3.27;;;16.60;99.90;;;;;;4971366;28;20247;-51
2022/05/22 07:23:34;;;;;;;9.37;3.20;;;17.40;99.90;;;;;;4971775;28;20275;-51
2022/05/22 07:25:59;;;;;;;13.03;3.00;;;17.90;99.90;;;;;;4971060;28;20201;-51
2022/05/22 07:28:25;;;;;;;8.80;3.07;;;17.70;99.90;;;;;;4970275;28;20197;-51
2022/05/22 07:30:51;;;;;;;5.43;2.43;;;17.40;99.90;;;;;;4971821;28;20197;-51
2022/05/22 07:33:17;;;;;;;11.90;2.70;;;16.90;99.90;;;;;;4970122;28;20185;-51
2022/05/22 07:35:58;;;;;;;7.43;2.73;;;16.40;99.90;;;;;;4971116;28;20189;-51
2022/05/22 07:38:24;;;;;;;12.13;3.50;;;15.70;99.90;;;;;;4969870;28;20454;-51
2022/05/22 07:40:51;;;;;;;13.40;3.07;;;15.20;99.90;;;;;;4969865;28;20440;-51
2022/05/22 07:43:17;;;;;;;9.33;2.97;;;14.90;99.90;;;;;;4971439;28;20428;-52
2022/05/22 07:45:43;;;;;;;8.17;3.10;;;14.70;99.90;;;;;;4971359;28;20491;-51
2022/05/22 07:48:09;;;;;;;10.93;2.87;;;14.60;99.90;;;;;;4971432;28;20189;-51
2022/05/22 07:50:35;;;;;;;6.97;2.70;;;14.50;99.90;;;;;;4966177;28;20201;-51
2022/05/22 07:53:01;;;;;;;9.33;4.10;;;14.50;99.90;;;;;;4971311;28;20727;-52
2022/05/22 07:55:27;;;;;;;14.93;3.67;;;14.90;99.90;;;;;;4970725;28;20436;-51
2022/05/22 07:57:52;;;;;;;13.00;3.03;;;15.80;99.90;;;;;;4972147;28;20467;-51
2022/05/22 08:00:20;;;;;;;14.30;2.80;;;16.80;99.90;;;;;;4974212;28;20196;-51
2022/05/22 08:02:46;;;;;;;6.90;3.10;;;17.90;99.90;;;;;;4974321;28;20189;-52
2022/05/22 08:05:14;;;;;;;8.30;3.20;;;18.70;99.90;;;;;;4974504;28;20498;-51
2022/05/22 08:07:40;;;;;;;9.00;2.90;;;19.10;99.90;;;;;;4974304;28;20500;-51
2022/05/22 08:10:08;;;;;;;11.00;2.40;;;18.70;99.90;;;;;;4974270;28;20461;-51
2022/05/22 08:12:38;;;;;;;11.63;3.20;;;17.90;99.90;;;;;;4974427;28;20200;-52
2022/05/22 08:15:05;;;;;;;6.90;2.37;;;16.90;99.90;;;;;;4975580;28;20441;-51
2022/05/22 08:17:35;;;;;;;8.23;2.10;;;16.30;99.90;;;;;;4974175;28;20524;-51
2022/05/22 08:20:06;;;;;;;17.10;3.13;;;15.80;99.90;;;;;;4974385;28;20842;-51
2022/05/22 08:22:32;;;;;;;4.67;2.03;;;15.40;99.90;;;;;;4974121;28;20502;-52
2022/05/22 08:24:57;;;;;;;7.57;2.70;;;15.60;99.90;;;;;;4974238;28;20468;-51
2022/05/22 08:27:23;;;;;;;6.37;2.10;;;16.70;99.90;;;;;;4974120;28;20181;-51
2022/05/22 08:29:48;;;;;;;7.30;3.27;;;18.00;99.90;;;;;;4979431;28;20913;-51
2022/05/22 08:32:14;;;;;;;8.53;2.30;;;19.00;99.90;;;;;;4973687;28;20201;-50
2022/05/22 08:34:39;;;;;;;9.60;2.30;;;19.90;99.90;;;;;;4973980;28;20259;-50
2022/05/22 08:37:05;;;;;;;9.17;2.40;;;20.50;99.90;;;;;;4974134;28;20577;-50
2022/05/22 08:39:32;;;;;;;5.00;1.60;;;20.70;99.90;;;;;;4973615;28;20643;-51
2022/05/22 08:41:59;;;;;;;12.23;2.70;;;20.10;99.90;;;;;;4973979;28;20500;-50
2022/05/22 08:44:32;;;;;;;13.70;2.50;;;19.10;99.90;;;;;;4973403;28;20840;-50
2022/05/22 08:47:03;;;;;;;7.30;2.30;;;18.20;99.90;;;;;;4972291;28;20483;-50
2022/05/22 08:49:35;;;;;;;8.77;2.77;;;17.50;99.90;;;;;;4973669;28;20447;-51
2022/05/22 08:52:13;;;;;;;8.30;2.37;;;17.10;99.90;;;;;;4973506;28;20436;-51
2022/05/22 08:54:42;;;;;;;5.60;2.03;;;16.70;99.90;;;;;;4972899;28;20424;-50
2022/05/22 09:00:23;;;;;;;7.03;1.93;;;17.10;99.90;;;;;;4967272;28;20920;-51
2022/05/22 09:03:14;;;;;;;6.07;1.90;;;18.60;99.90;;;;;;4973433;28;20420;-51
2022/05/22 09:05:40;;;;;;;5.40;1.67;;;19.30;99.90;;;;;;4972245;28;20189;-51
2022/05/22 09:08:14;;;;;;;4.77;1.27;;;18.90;99.90;;;;;;4969543;28;20476;-51
2022/05/22 09:11:08;;;;;;;6.00;2.03;;;18.00;99.90;;;;;;4971922;28;20800;-50
2022/05/22 09:13:42;;;;;;;5.83;1.60;;;17.10;99.90;;;;;;4965656;28;20424;-49
2022/05/22 09:16:15;;;;;;;4.80;1.20;;;17.00;99.90;;;;;;4973249;28;20468;-49
2022/05/22 09:18:51;;;;;;;4.83;1.23;;;17.90;99.90;;;;;;4973407;28;20424;-49
2022/05/22 09:21:35;;;;;;;4.03;1.10;;;19.30;99.90;;;;;;4970809;28;20443;-51
2022/05/22 09:24:11;;;;;;;4.47;1.50;;;20.30;99.90;;;;;;4972908;28;20930;-51
2022/05/22 09:26:46;;;;;;;2.97;1.40;;;20.70;99.90;;;;;;4973100;28;20439;-51
2022/05/22 09:30:02;;;;;;;3.90;1.27;;;20.40;99.90;;;;;;4972988;28;20428;-51
2022/05/22 09:32:45;;;;;;;4.87;1.47;;;19.80;99.90;;;;;;4969474;28;20797;-51
2022/05/22 09:35:49;;;;;;;3.63;1.57;;;19.10;99.90;;;;;;4972889;28;20527;-51
2022/05/22 09:38:22;;;;;;;2.60;1.57;;;18.70;99.90;;;;;;4972141;28;21299;-49
2022/05/22 09:40:50;;;;;;;4.43;1.67;;;17.90;99.90;;;;;;4972783;28;20514;-48
2022/05/22 09:44:03;;;;;;;3.90;1.50;;;17.50;99.90;;;;;;4972312;28;20436;-48
2022/05/22 09:46:59;;;;;;;3.17;1.40;;;17.20;99.90;;;;;;4969636;28;20507;-51
2022/05/22 09:49:52;;;;;;;3.90;1.30;;;17.30;99.90;;;;;;4972864;28;20449;-51
2022/05/22 09:52:53;;;;;;;4.30;1.60;;;18.80;99.90;;;;;;4967986;28;20455;-51
2022/05/22 09:55:37;;;;;;;4.13;1.40;;;20.00;99.90;;;;;;4966741;28;20482;-51
2022/05/22 09:58:33;;;;;;;5.77;1.40;;;21.10;99.90;;;;;;4972052;28;20873;-52
2022/05/22 10:01:10;;;;;;;7.43;1.73;;;21.90;99.90;;;;;;4972432;28;20425;-52
2022/05/22 10:03:50;;;;;;;4.20;1.53;;;22.20;99.90;;;;;;4972487;28;20428;-51
2022/05/22 10:06:16;;;;;;;3.10;1.30;;;22.40;99.90;;;;;;4972392;28;20438;-51
2022/05/22 10:09:06;;;;;;;3.00;1.20;;;22.10;99.90;;;;;;4972417;28;20488;-51
2022/05/22 10:11:54;;;;;;;2.83;1.63;;;21.20;99.90;;;;;;4970636;28;20201;-51
2022/05/22 10:14:46;;;;;;;3.87;1.70;;;21.30;99.90;;;;;;4971875;28;20453;-51
2022/05/22 10:17:14;;;;;;;4.50;1.20;;;21.10;99.90;;;;;;4966637;28;20804;-51
2022/05/22 10:19:59;;;;;;;10.63;1.60;;;20.70;99.90;;;;;;4972212;28;20511;-51
2022/05/22 10:22:41;;;;;;;2.30;1.30;;;20.60;99.90;;;;;;4972069;28;21031;-51
2022/05/22 10:25:09;;;;;;;4.97;1.63;;;21.40;99.90;;;;;;4969852;28;20424;-51
2022/05/22 10:27:50;;;;;;;3.10;1.27;;;22.30;99.90;;;;;;4971941;28;20424;-51
2022/05/22 10:30:24;;;;;;;2.50;1.33;;;23.20;99.90;;;;;;4964531;28;20792;-52
2022/05/22 10:33:13;;;;;;;6.23;1.47;;;23.70;99.90;;;;;;4971581;28;20440;-52
2022/05/22 10:36:03;;;;;;;3.77;1.30;;;23.50;99.90;;;;;;4971461;28;21251;-51
2022/05/22 10:38:35;;;;;;;3.47;1.23;;;23.30;99.90;;;;;;4971310;28;20444;-51
2022/05/22 10:44:25;;;;;;;2.60;1.20;;;23.40;99.90;;;;;;4969006;28;20440;-51
2022/05/22 10:46:54;;;;;;;2.03;1.20;;;24.10;99.90;;;;;;4969709;28;20436;-51
2022/05/22 10:49:24;;;;;;;2.37;1.10;;;24.40;99.90;;;;;;4969857;28;20543;-52
2022/05/22 10:51:59;;;;;;;3.40;1.13;;;23.70;99.90;;;;;;4970368;28;20452;-51
2022/05/22 10:54:29;;;;;;;2.00;1.13;;;22.60;99.90;;;;;;4971667;28;20456;-51
2022/05/22 10:57:26;;;;;;;2.20;1.23;;;21.20;99.90;;;;;;4964534;28;20467;-51
2022/05/22 10:59:53;;;;;;;4.50;1.40;;;20.20;99.90;;;;;;4968681;28;20468;-51
2022/05/22 11:02:27;;;;;;;3.87;1.30;;;19.90;99.90;;;;;;4971468;28;20436;-51
2022/05/22 11:04:55;;;;;;;5.03;1.30;;;20.70;99.90;;;;;;4969273;28;20481;-51
2022/05/22 11:07:41;;;;;;;3.50;1.17;;;21.70;99.90;;;;;;4970715;28;20558;-52
2022/05/22 11:10:14;;;;;;;2.03;0.90;;;22.70;99.90;;;;;;4969609;28;20538;-51
2022/05/22 11:12:40;;;;;;;2.20;1.30;;;23.60;99.90;;;;;;4971618;28;20441;-51
2022/05/22 11:15:09;;;;;;;1.70;1.00;;;24.30;99.90;;;;;;4970650;28;20446;-51
2022/05/22 11:17:35;;;;;;;4.00;1.20;;;24.90;99.90;;;;;;4971346;28;20217;-52
2022/05/22 11:20:11;;;;;;;3.33;1.33;;;25.60;99.90;;;;;;4971643;28;20432;-53
2022/05/22 11:23:06;;;;;;;2.60;1.20;;;26.10;99.90;;;;;;4971597;28;21072;-51
2022/05/22 11:25:50;;;;;;;5.27;1.40;;;25.70;99.90;;;;;;4968771;28;20424;-51
2022/05/22 11:28:25;;;;;;;4.40;1.63;;;25.50;99.90;;;;;;4971117;28;20447;-52
2022/05/22 11:31:20;;;;;;;4.63;1.40;;;25.50;99.90;;;;;;4969686;28;20475;-51
2022/05/22 11:34:14;;;;;;;3.10;1.37;;;26.10;99.90;;;;;;4974595;28;20436;-52
2022/05/22 11:36:54;;;;;;;4.30;1.37;;;26.00;99.90;;;;;;4974500;28;20463;-52
2022/05/22 11:39:40;;;;;;;5.53;1.20;;;24.60;99.90;;;;;;4974363;28;20777;-51
2022/05/22 11:42:32;;;;;;;5.43;1.30;;;24.10;99.90;;;;;;4968918;28;20467;-51
2022/05/22 11:45:16;;;;;;;2.67;1.30;;;23.20;99.90;;;;;;4974885;28;20436;-51
2022/05/22 11:48:09;;;;;;;3.77;1.47;;;22.50;99.90;;;;;;4973832;28;20778;-50
2022/05/22 11:50:40;;;;;;;3.80;1.37;;;21.90;99.90;;;;;;4979182;28;20446;-50
2022/05/22 11:53:35;;;;;;;4.60;1.40;;;21.00;99.90;;;;;;4974601;28;20421;-51
2022/05/22 11:56:19;;;;;;;6.33;1.67;;;20.40;99.90;;;;;;4974479;28;20971;-51
2022/05/22 11:58:55;;;;;;;4.73;1.40;;;20.00;99.90;;;;;;4968181;28;20432;-51
2022/05/22 12:01:46;;;;;;;4.33;1.60;;;19.70;99.90;;;;;;4974519;28;20463;-49
2022/05/22 12:04:39;;;;;;;2.87;1.33;;;19.40;99.90;;;;;;4974554;28;20439;-51
2022/05/22 12:07:37;;;;;;;5.77;1.60;;;19.30;99.90;;;;;;4968164;28;20455;-51
2022/05/22 12:10:23;;;;;;;3.97;1.60;;;19.90;99.90;;;;;;4974105;28;20455;-51
2022/05/22 12:13:02;;;;;;;4.57;1.37;;;21.30;99.90;;;;;;4974040;28;20438;-50
2022/05/22 12:15:36;;;;;;;7.20;1.40;;;22.10;99.90;;;;;;4972713;28;20456;-50
2022/05/22 12:18:27;;;;;;;2.50;1.37;;;21.80;99.90;;;;;;4974630;28;20824;-51
2022/05/22 12:21:16;;;;;;;5.80;2.50;;;21.60;99.90;;;;;;4974164;28;20423;-56
2022/05/22 12:24:12;;;;;;;5.27;2.00;;;21.90;99.90;;;;;;4974427;28;20423;-56
2022/05/22 12:26:40;;;;;;;2.93;1.23;;;21.70;99.90;;;;;;4972574;28;20467;-55
2022/05/22 12:29:11;;;;;;;9.67;1.67;;;21.00;99.90;;;;;;4973812;28;20990;-56
2022/05/22 12:31:48;;;;;;;4.17;1.80;;;20.30;99.90;;;;;;4974083;28;20475;-54
2022/05/22 12:34:32;;;;;;;6.10;1.87;;;19.70;99.90;;;;;;4976621;28;20416;-55
2022/05/22 12:37:00;;;;;;;5.30;1.40;;;19.20;99.90;;;;;;4966972;28;20476;-56
2022/05/22 12:39:32;;;;;;;4.60;1.23;;;18.90;99.90;;;;;;4974422;28;20467;-55
2022/05/22 12:42:11;;;;;;;3.77;1.20;;;18.80;99.90;;;;;;4974267;28;20449;-55
2022/05/22 12:44:37;;;;;;;3.97;1.27;;;18.80;99.90;;;;;;4974004;28;20479;-56
2022/05/22 12:47:15;;;;;;;1.90;1.20;;;18.80;99.90;;;;;;4974159;28;20424;-55
2022/05/22 12:49:53;;;;;;;5.03;1.83;;;20.00;99.90;;;;;;4973165;28;20204;-54
2022/05/22 12:52:26;;;;;;;6.00;1.40;;;21.20;99.90;;;;;;4972731;28;20444;-55
2022/05/22 12:55:22;;;;;;;4.20;1.10;;;22.10;99.90;;;;;;4970485;28;20426;-55
2022/05/22 12:57:59;;;;;;;7.10;1.60;;;22.40;99.90;;;;;;4973468;28;20957;-55
2022/05/22 13:00:39;;;;;;;4.43;1.47;;;23.00;99.90;;;;;;4970522;28;20468;-56
2022/05/22 13:03:14;;;;;;;6.67;2.20;;;23.20;99.90;;;;;;4973408;28;20428;-55
2022/05/22 13:05:42;;;;;;;1.30;1.20;;;22.60;99.90;;;;;;4973419;28;20430;-54
2022/05/22 13:08:23;;;;;;;4.07;1.53;;;22.00;99.90;;;;;;4969994;28;20483;-56
2022/05/22 13:10:54;;;;;;;4.03;1.50;;;21.40;99.90;;;;;;4973570;28;20448;-54
2022/05/22 13:13:30;;;;;;;7.13;1.50;;;21.50;99.90;;;;;;4974828;28;20926;-55
2022/05/22 13:16:04;;;;;;;3.87;1.20;;;21.50;99.90;;;;;;4973798;28;20451;-55
2022/05/22 13:18:31;;;;;;;2.90;1.10;;;21.20;99.90;;;;;;4975598;28;21218;-55
2022/05/22 13:21:02;;;;;;;2.10;1.10;;;21.00;99.90;;;;;;4974564;28;20488;-56
2022/05/22 13:23:33;;;;;;;4.40;1.60;;;20.70;99.90;;;;;;4974608;28;20502;-55
2022/05/22 13:26:06;;;;;;;2.57;1.20;;;20.50;99.90;;;;;;4974834;28;20420;-54